EIN45R EGCC-EIDW
Flight info
| Callsign | EIN45R |
|---|---|
| Flight time | 0h 47m |
| Altitude | 26000 |
| Route | ASMIM L975 WAL L10 PENIL/N0400F240 L28 LELDO M145 BAGSO BAGSO4L |
| Aircraft | A333/H-SDE3GHIJ2J3J5M1RVWXY/LB2D1 |
Departure
| Time | 2026-05-05 15:35 |
|---|---|
| Airport | Manchester Airport (EGCC) |
Arrival
| Time | 2026-05-05 16:22 |
|---|---|
| Airport | Dublin Airport (EIDW) |
| Time | Latitude | Longitude | Altitude | Speed | Heading |
|---|---|---|---|---|---|
| 2026-05-05 15:06 | 53.36577 | -2.27964 | 259 ft | 0 kts | 45° |
| 2026-05-05 15:20 | 53.36576 | -2.27966 | 259 ft | 2 kts | 45° |
| 2026-05-05 15:20 | 53.36565 | -2.27986 | 259 ft | 2 kts | 50° |
| 2026-05-05 15:21 | 53.36555 | -2.28008 | 259 ft | 2 kts | 56° |
| 2026-05-05 15:21 | 53.36547 | -2.28031 | 259 ft | 2 kts | 67° |
| 2026-05-05 15:21 | 53.36542 | -2.28057 | 259 ft | 2 kts | 84° |
| 2026-05-05 15:21 | 53.36542 | -2.28085 | 259 ft | 2 kts | 109° |
| 2026-05-05 15:22 | 53.36550 | -2.28109 | 259 ft | 2 kts | 126° |
| 2026-05-05 15:22 | 53.36554 | -2.28119 | 259 ft | 0 kts | 129° |
| 2026-05-05 15:22 | 53.36554 | -2.28120 | 259 ft | 0 kts | 129° |
| 2026-05-05 15:24 | 53.36554 | -2.28118 | 259 ft | 3 kts | 129° |
| 2026-05-05 15:24 | 53.36505 | -2.28033 | 259 ft | 8 kts | 141° |
| 2026-05-05 15:24 | 53.36459 | -2.28020 | 259 ft | 5 kts | 201° |
| 2026-05-05 15:25 | 53.36431 | -2.28064 | 259 ft | 6 kts | 223° |
| 2026-05-05 15:25 | 53.36393 | -2.28123 | 259 ft | 9 kts | 222° |
| 2026-05-05 15:25 | 53.36344 | -2.28197 | 259 ft | 10 kts | 216° |
| 2026-05-05 15:25 | 53.36298 | -2.28200 | 259 ft | 0 kts | 153° |
| 2026-05-05 15:26 | 53.36288 | -2.28184 | 259 ft | 5 kts | 138° |
| 2026-05-05 15:26 | 53.36259 | -2.28139 | 259 ft | 7 kts | 136° |
| 2026-05-05 15:26 | 53.36221 | -2.28079 | 259 ft | 6 kts | 144° |
| 2026-05-05 15:26 | 53.36194 | -2.28089 | 259 ft | 9 kts | 216° |
| 2026-05-05 15:27 | 53.36139 | -2.28100 | 259 ft | 8 kts | 162° |
| 2026-05-05 15:27 | 53.36092 | -2.28046 | 259 ft | 9 kts | 140° |
| 2026-05-05 15:27 | 53.36023 | -2.27947 | 259 ft | 16 kts | 139° |
| 2026-05-05 15:27 | 53.35930 | -2.27856 | 259 ft | 15 kts | 168° |
| 2026-05-05 15:28 | 53.35822 | -2.27858 | 255 ft | 17 kts | 185° |
| 2026-05-05 15:28 | 53.35687 | -2.27883 | 248 ft | 22 kts | 186° |
| 2026-05-05 15:28 | 53.35594 | -2.27948 | 242 ft | 9 kts | 234° |
| 2026-05-05 15:28 | 53.35534 | -2.28073 | 238 ft | 17 kts | 224° |
| 2026-05-05 15:29 | 53.35436 | -2.28150 | 240 ft | 14 kts | 193° |
| 2026-05-05 15:29 | 53.35319 | -2.28197 | 237 ft | 20 kts | 201° |
| 2026-05-05 15:29 | 53.35212 | -2.28338 | 241 ft | 20 kts | 229° |
| 2026-05-05 15:29 | 53.35123 | -2.28520 | 234 ft | 15 kts | 237° |
| 2026-05-05 15:30 | 53.35061 | -2.28651 | 235 ft | 14 kts | 229° |
| 2026-05-05 15:30 | 53.34987 | -2.28784 | 232 ft | 17 kts | 227° |
| 2026-05-05 15:30 | 53.34899 | -2.28941 | 227 ft | 20 kts | 226° |
| 2026-05-05 15:30 | 53.34821 | -2.29085 | 230 ft | 11 kts | 229° |
| 2026-05-05 15:31 | 53.34762 | -2.29200 | 225 ft | 18 kts | 229° |
| 2026-05-05 15:31 | 53.34696 | -2.29311 | 220 ft | 0 kts | 210° |
| 2026-05-05 15:33 | 53.34679 | -2.29323 | 221 ft | 12 kts | 201° |
| 2026-05-05 15:33 | 53.34574 | -2.29316 | 219 ft | 14 kts | 149° |
| 2026-05-05 15:34 | 53.34557 | -2.29200 | 219 ft | 8 kts | 56° |
| 2026-05-05 15:34 | 53.34645 | -2.29011 | 229 ft | 52 kts | 51° |
| 2026-05-05 15:34 | 53.35037 | -2.28198 | 236 ft | 126 kts | 51° |
| 2026-05-05 15:34 | 53.35462 | -2.27316 | 310 ft | 162 kts | 50° |
| 2026-05-05 15:35 | 53.36182 | -2.25788 | 903 ft | 164 kts | 50° |
| 2026-05-05 15:35 | 53.36867 | -2.24343 | 1583 ft | 160 kts | 49° |
| 2026-05-05 15:35 | 53.37909 | -2.22211 | 1948 ft | 195 kts | 44° |
| 2026-05-05 15:35 | 53.38645 | -2.21256 | 2132 ft | 212 kts | 24° |
| 2026-05-05 15:36 | 53.40161 | -2.20996 | 2436 ft | 236 kts | 345° |
| 2026-05-05 15:36 | 53.41541 | -2.22559 | 3026 ft | 251 kts | 308° |
| 2026-05-05 15:36 | 53.42361 | -2.25184 | 3846 ft | 257 kts | 294° |
| 2026-05-05 15:36 | 53.43057 | -2.27977 | 4674 ft | 262 kts | 294° |
| 2026-05-05 15:37 | 53.43796 | -2.30796 | 5497 ft | 266 kts | 296° |
| 2026-05-05 15:37 | 53.44583 | -2.33624 | 6386 ft | 269 kts | 297° |
| 2026-05-05 15:37 | 53.45418 | -2.36451 | 7256 ft | 270 kts | 298° |
| 2026-05-05 15:37 | 53.46267 | -2.39252 | 8226 ft | 269 kts | 298° |
| 2026-05-05 15:38 | 53.47050 | -2.42098 | 9143 ft | 271 kts | 286° |
| 2026-05-05 15:38 | 53.47090 | -2.45270 | 10010 ft | 276 kts | 262° |
| 2026-05-05 15:38 | 53.46692 | -2.48503 | 10521 ft | 292 kts | 258° |
| 2026-05-05 15:38 | 53.46225 | -2.51961 | 10812 ft | 314 kts | 259° |
| 2026-05-05 15:39 | 53.45758 | -2.55654 | 11111 ft | 333 kts | 259° |
| 2026-05-05 15:39 | 53.45302 | -2.59482 | 11675 ft | 342 kts | 260° |
| 2026-05-05 15:39 | 53.44849 | -2.63426 | 12372 ft | 346 kts | 260° |
| 2026-05-05 15:39 | 53.44400 | -2.67391 | 13188 ft | 347 kts | 260° |
| 2026-05-05 15:40 | 53.43953 | -2.71373 | 13990 ft | 348 kts | 261° |
| 2026-05-05 15:40 | 53.43498 | -2.75451 | 14575 ft | 354 kts | 260° |
| 2026-05-05 15:40 | 53.43045 | -2.79518 | 15179 ft | 357 kts | 260° |
| 2026-05-05 15:40 | 53.42592 | -2.83585 | 15827 ft | 360 kts | 260° |
| 2026-05-05 15:41 | 53.42128 | -2.87725 | 16504 ft | 362 kts | 260° |
| 2026-05-05 15:41 | 53.41662 | -2.91873 | 17175 ft | 363 kts | 260° |
| 2026-05-05 15:41 | 53.41189 | -2.96064 | 17738 ft | 368 kts | 259° |
| 2026-05-05 15:41 | 53.40709 | -3.00304 | 18327 ft | 372 kts | 259° |
| 2026-05-05 15:42 | 53.40224 | -3.04572 | 18866 ft | 374 kts | 259° |
| 2026-05-05 15:42 | 53.39734 | -3.08867 | 19393 ft | 376 kts | 259° |
| 2026-05-05 15:42 | 53.39384 | -3.13232 | 19879 ft | 380 kts | 271° |
| 2026-05-05 15:42 | 53.39924 | -3.17563 | 20373 ft | 384 kts | 292° |
| 2026-05-05 15:43 | 53.41291 | -3.21431 | 20879 ft | 389 kts | 305° |
| 2026-05-05 15:43 | 53.43029 | -3.24937 | 21374 ft | 393 kts | 309° |
| 2026-05-05 15:43 | 53.44868 | -3.28352 | 21864 ft | 396 kts | 310° |
| 2026-05-05 15:43 | 53.46692 | -3.31841 | 22329 ft | 398 kts | 308° |
| 2026-05-05 15:44 | 53.48455 | -3.35444 | 22793 ft | 401 kts | 306° |
| 2026-05-05 15:44 | 53.50163 | -3.39170 | 23278 ft | 403 kts | 304° |
| 2026-05-05 15:44 | 53.51826 | -3.42974 | 23697 ft | 406 kts | 303° |
| 2026-05-05 15:44 | 53.53448 | -3.46793 | 24065 ft | 408 kts | 303° |
| 2026-05-05 15:45 | 53.55087 | -3.50705 | 24422 ft | 411 kts | 303° |
| 2026-05-05 15:45 | 53.56733 | -3.54652 | 24779 ft | 413 kts | 303° |
| 2026-05-05 15:45 | 53.58389 | -3.58623 | 25150 ft | 416 kts | 303° |
| 2026-05-05 15:45 | 53.60057 | -3.62619 | 25506 ft | 418 kts | 303° |
| 2026-05-05 15:46 | 53.61659 | -3.66736 | 25866 ft | 419 kts | 297° |
| 2026-05-05 15:46 | 53.62979 | -3.71122 | 26024 ft | 422 kts | 292° |
| 2026-05-05 15:46 | 53.64131 | -3.75705 | 26029 ft | 427 kts | 290° |
| 2026-05-05 15:46 | 53.65200 | -3.80379 | 26037 ft | 428 kts | 289° |
| 2026-05-05 15:47 | 53.66246 | -3.85080 | 26037 ft | 428 kts | 289° |
| 2026-05-05 15:47 | 53.66941 | -3.88192 | 26034 ft | 428 kts | 289° |
| 2026-05-05 15:47 | 53.68351 | -3.94398 | 26038 ft | 427 kts | 289° |
| 2026-05-05 15:47 | 53.69433 | -3.99064 | 26034 ft | 427 kts | 289° |
| 2026-05-05 15:48 | 53.70526 | -4.03723 | 26034 ft | 426 kts | 289° |
| 2026-05-05 15:48 | 53.71540 | -4.08407 | 26035 ft | 424 kts | 283° |
| 2026-05-05 15:48 | 53.72103 | -4.13290 | 26035 ft | 422 kts | 276° |
| 2026-05-05 15:48 | 53.72372 | -4.18220 | 26035 ft | 422 kts | 272° |
| 2026-05-05 15:49 | 53.72504 | -4.23173 | 26034 ft | 422 kts | 271° |
| 2026-05-05 15:49 | 53.72595 | -4.28135 | 26034 ft | 422 kts | 271° |
| 2026-05-05 15:49 | 53.72693 | -4.33094 | 26034 ft | 423 kts | 271° |
| 2026-05-05 15:49 | 53.72815 | -4.38059 | 26040 ft | 423 kts | 271° |
| 2026-05-05 15:50 | 53.72961 | -4.43018 | 26038 ft | 423 kts | 272° |
| 2026-05-05 15:50 | 53.73125 | -4.47980 | 26037 ft | 423 kts | 272° |
| 2026-05-05 15:50 | 53.73295 | -4.52868 | 26037 ft | 423 kts | 272° |
| 2026-05-05 15:50 | 53.73471 | -4.57827 | 26037 ft | 423 kts | 272° |
| 2026-05-05 15:51 | 53.73645 | -4.62760 | 26042 ft | 417 kts | 272° |
| 2026-05-05 15:51 | 53.73815 | -4.67595 | 26051 ft | 412 kts | 272° |
| 2026-05-05 15:51 | 53.73982 | -4.72480 | 26043 ft | 419 kts | 272° |
| 2026-05-05 15:51 | 53.74148 | -4.77424 | 26042 ft | 422 kts | 272° |
| 2026-05-05 15:52 | 53.74311 | -4.82374 | 26050 ft | 422 kts | 272° |
| 2026-05-05 15:52 | 53.74474 | -4.87331 | 26051 ft | 422 kts | 272° |
| 2026-05-05 15:52 | 53.74635 | -4.92280 | 26051 ft | 422 kts | 272° |
| 2026-05-05 15:52 | 53.74794 | -4.97233 | 26051 ft | 422 kts | 272° |
| 2026-05-05 15:53 | 53.74952 | -5.02183 | 26057 ft | 422 kts | 272° |
| 2026-05-05 15:53 | 53.75107 | -5.07150 | 26056 ft | 422 kts | 272° |
| 2026-05-05 15:53 | 53.75249 | -5.12103 | 26055 ft | 422 kts | 270° |
| 2026-05-05 15:53 | 53.74853 | -5.16998 | 26058 ft | 421 kts | 254° |
| 2026-05-05 15:54 | 53.73933 | -5.21689 | 26061 ft | 416 kts | 251° |
| 2026-05-05 15:54 | 53.72978 | -5.26128 | 25997 ft | 401 kts | 251° |
| 2026-05-05 15:54 | 53.72033 | -5.30553 | 25823 ft | 390 kts | 251° |
| 2026-05-05 15:54 | 53.71150 | -5.34757 | 25658 ft | 379 kts | 251° |
| 2026-05-05 15:55 | 53.70290 | -5.38895 | 25496 ft | 369 kts | 252° |
| 2026-05-05 15:55 | 53.69706 | -5.41724 | 25402 ft | 362 kts | 252° |
| 2026-05-05 16:04 | 53.69263 | -5.43872 | 25323 ft | 357 kts | 252° |
| 2026-05-05 16:04 | 53.68459 | -5.47769 | 25166 ft | 348 kts | 251° |
| 2026-05-05 16:04 | 53.67700 | -5.51591 | 25000 ft | 339 kts | 261° |
| 2026-05-05 16:04 | 53.67683 | -5.55506 | 24767 ft | 332 kts | 275° |
| 2026-05-05 16:05 | 53.67939 | -5.59335 | 24635 ft | 324 kts | 276° |
| 2026-05-05 16:05 | 53.68166 | -5.63065 | 24521 ft | 315 kts | 275° |
| 2026-05-05 16:05 | 53.68350 | -5.66685 | 24399 ft | 306 kts | 266° |
| 2026-05-05 16:05 | 53.67739 | -5.70059 | 24217 ft | 302 kts | 238° |
| 2026-05-05 16:06 | 53.66286 | -5.72592 | 23962 ft | 301 kts | 221° |
| 2026-05-05 16:06 | 53.64641 | -5.74751 | 23490 ft | 299 kts | 217° |
| 2026-05-05 16:06 | 53.62705 | -5.76050 | 22793 ft | 307 kts | 188° |
| 2026-05-05 16:06 | 53.60586 | -5.75551 | 22140 ft | 315 kts | 159° |
| 2026-05-05 16:07 | 53.58839 | -5.73321 | 21510 ft | 320 kts | 128° |
| 2026-05-05 16:07 | 53.57870 | -5.69982 | 20943 ft | 319 kts | 109° |
| 2026-05-05 16:07 | 53.57125 | -5.66547 | 20433 ft | 315 kts | 113° |
| 2026-05-05 16:07 | 53.56341 | -5.63116 | 19906 ft | 312 kts | 113° |
| 2026-05-05 16:08 | 53.55150 | -5.60155 | 19348 ft | 305 kts | 142° |
| 2026-05-05 16:08 | 53.53338 | -5.58388 | 18815 ft | 299 kts | 158° |
| 2026-05-05 16:08 | 53.51444 | -5.56960 | 18315 ft | 297 kts | 157° |
| 2026-05-05 16:08 | 53.49581 | -5.55489 | 17725 ft | 294 kts | 161° |
| 2026-05-05 16:09 | 53.47605 | -5.54773 | 17149 ft | 289 kts | 175° |
| 2026-05-05 16:09 | 53.45613 | -5.54276 | 16570 ft | 287 kts | 174° |
| 2026-05-05 16:09 | 53.43641 | -5.53798 | 16044 ft | 285 kts | 174° |
| 2026-05-05 16:09 | 53.41682 | -5.53307 | 15517 ft | 283 kts | 173° |
| 2026-05-05 16:10 | 53.39739 | -5.52863 | 14996 ft | 280 kts | 181° |
| 2026-05-05 16:10 | 53.37839 | -5.53352 | 14449 ft | 275 kts | 195° |
| 2026-05-05 16:10 | 53.35998 | -5.54045 | 13955 ft | 274 kts | 195° |
| 2026-05-05 16:10 | 53.34150 | -5.54784 | 13398 ft | 272 kts | 195° |
| 2026-05-05 16:11 | 53.32310 | -5.55512 | 12855 ft | 270 kts | 195° |
| 2026-05-05 16:11 | 53.27388 | -5.59524 | 11250 ft | 262 kts | 216° |
| 2026-05-05 16:12 | 53.25883 | -5.61239 | 10746 ft | 260 kts | 216° |
| 2026-05-05 16:12 | 53.23447 | -5.65403 | 9656 ft | 252 kts | 258° |
| 2026-05-05 16:13 | 53.26024 | -5.71790 | 8068 ft | 237 kts | 328° |
| 2026-05-05 16:13 | 53.27386 | -5.73315 | 7605 ft | 234 kts | 324° |
| 2026-05-05 16:13 | 53.28646 | -5.74984 | 7269 ft | 226 kts | 320° |
| 2026-05-05 16:14 | 53.30807 | -5.78280 | 6808 ft | 201 kts | 317° |
| 2026-05-05 16:14 | 53.32769 | -5.81527 | 6052 ft | 198 kts | 316° |
| 2026-05-05 16:15 | 53.34620 | -5.84692 | 5552 ft | 181 kts | 315° |
| 2026-05-05 16:15 | 53.36282 | -5.87564 | 5060 ft | 167 kts | 315° |
| 2026-05-05 16:16 | 53.37877 | -5.90328 | 4404 ft | 164 kts | 316° |
| 2026-05-05 16:16 | 53.39458 | -5.93076 | 3714 ft | 163 kts | 317° |
| 2026-05-05 16:17 | 53.40453 | -5.96424 | 3236 ft | 159 kts | 285° |
| 2026-05-05 16:17 | 53.40573 | -5.98194 | 3074 ft | 149 kts | 281° |
| 2026-05-05 16:18 | 53.40747 | -6.01565 | 2995 ft | 146 kts | 281° |
| 2026-05-05 16:18 | 53.40843 | -6.03274 | 2878 ft | 148 kts | 281° |
| 2026-05-05 16:18 | 53.41032 | -6.06708 | 2461 ft | 148 kts | 280° |
| 2026-05-05 16:19 | 53.41124 | -6.08422 | 2246 ft | 147 kts | 280° |
| 2026-05-05 16:19 | 53.41218 | -6.10131 | 2051 ft | 148 kts | 279° |
| 2026-05-05 16:19 | 53.41401 | -6.13511 | 1643 ft | 142 kts | 279° |
| 2026-05-05 16:20 | 53.41578 | -6.16767 | 1248 ft | 140 kts | 279° |
| 2026-05-05 16:20 | 53.41763 | -6.20051 | 842 ft | 144 kts | 277° |
| 2026-05-05 16:21 | 53.41933 | -6.23481 | 428 ft | 149 kts | 277° |
| 2026-05-05 16:22 | 53.42141 | -6.27107 | 237 ft | 25 kts | 275° |
| 2026-05-05 16:22 | 53.42161 | -6.27497 | 239 ft | 23 kts | 277° |
| 2026-05-05 16:23 | 53.42263 | -6.28017 | 235 ft | 25 kts | 301° |
| 2026-05-05 16:23 | 53.42345 | -6.28134 | 229 ft | 7 kts | 17° |
| 2026-05-05 16:23 | 53.42358 | -6.27964 | 229 ft | 16 kts | 95° |
| 2026-05-05 16:24 | 53.42347 | -6.27754 | 229 ft | 21 kts | 95° |
| 2026-05-05 16:24 | 53.42334 | -6.27509 | 229 ft | 21 kts | 95° |
| 2026-05-05 16:24 | 53.42308 | -6.27003 | 229 ft | 22 kts | 96° |
| 2026-05-05 16:25 | 53.42293 | -6.26741 | 230 ft | 23 kts | 95° |
| 2026-05-05 16:25 | 53.42262 | -6.26197 | 229 ft | 24 kts | 95° |
| 2026-05-05 16:25 | 53.42245 | -6.25895 | 229 ft | 27 kts | 95° |
| 2026-05-05 16:26 | 53.42212 | -6.25270 | 229 ft | 27 kts | 95° |
| 2026-05-05 16:26 | 53.42180 | -6.24664 | 229 ft | 24 kts | 96° |
| 2026-05-05 16:27 | 53.42170 | -6.24498 | 229 ft | 11 kts | 96° |
| 2026-05-05 16:27 | 53.42168 | -6.24358 | 229 ft | 12 kts | 81° |
| 2026-05-05 16:27 | 53.42220 | -6.24258 | 229 ft | 10 kts | 18° |
| 2026-05-05 16:27 | 53.42262 | -6.24297 | 229 ft | 8 kts | 323° |
| 2026-05-05 16:28 | 53.42297 | -6.24340 | 229 ft | 0 kts | 323° |
| 2026-05-05 16:28 | 53.40882 | -6.03960 | 2800 ft | 148 kts | 281° |
| 2026-05-05 16:28 | 53.41035 | -6.06779 | 2474 ft | 148 kts | 280° |
| 2026-05-05 16:28 | 53.41614 | -6.17432 | 1156 ft | 141 kts | 279° |
| 2026-05-05 16:29 | 53.41709 | -6.19179 | 955 ft | 142 kts | 279° |
| 2026-05-05 16:29 | 53.41806 | -6.20881 | 752 ft | 147 kts | 275° |